sensor_id;sensor_type;location;lat;lon;timestamp;P1;durP1;ratioP1;P2;durP2;ratioP2
23555;SDS011;11956;53.184;8.578;2022-07-29T00:01:51;4.25;;;1.10;;
23555;SDS011;11956;53.184;8.578;2022-07-29T00:04:52;3.40;;;1.42;;
23555;SDS011;11956;53.184;8.578;2022-07-29T00:07:53;3.88;;;1.00;;
23555;SDS011;11956;53.184;8.578;2022-07-29T00:10:54;9.20;;;1.58;;
23555;SDS011;11956;53.184;8.578;2022-07-29T00:13:55;4.82;;;1.35;;
23555;SDS011;11956;53.184;8.578;2022-07-29T00:16:56;1.55;;;0.93;;
23555;SDS011;11956;53.184;8.578;2022-07-29T00:19:57;6.10;;;1.42;;
23555;SDS011;11956;53.184;8.578;2022-07-29T00:22:58;4.18;;;1.33;;
23555;SDS011;11956;53.184;8.578;2022-07-29T00:25:59;4.43;;;1.48;;
23555;SDS011;11956;53.184;8.578;2022-07-29T00:29:00;6.47;;;1.25;;
23555;SDS011;11956;53.184;8.578;2022-07-29T00:32:02;3.63;;;1.20;;
23555;SDS011;11956;53.184;8.578;2022-07-29T00:35:04;5.30;;;1.33;;
23555;SDS011;11956;53.184;8.578;2022-07-29T00:38:24;3.13;;;1.10;;
23555;SDS011;11956;53.184;8.578;2022-07-29T00:41:25;3.15;;;1.20;;
23555;SDS011;11956;53.184;8.578;2022-07-29T00:44:26;4.20;;;1.40;;
23555;SDS011;11956;53.184;8.578;2022-07-29T00:47:26;7.05;;;1.23;;
23555;SDS011;11956;53.184;8.578;2022-07-29T00:50:27;3.50;;;1.15;;
23555;SDS011;11956;53.184;8.578;2022-07-29T00:53:29;5.65;;;1.20;;
23555;SDS011;11956;53.184;8.578;2022-07-29T00:56:31;4.07;;;1.10;;
23555;SDS011;11956;53.184;8.578;2022-07-29T00:59:33;4.70;;;1.35;;
23555;SDS011;11956;53.184;8.578;2022-07-29T01:02:34;4.32;;;1.42;;
23555;SDS011;11956;53.184;8.578;2022-07-29T01:05:35;3.47;;;1.10;;
23555;SDS011;11956;53.184;8.578;2022-07-29T01:08:37;4.38;;;1.15;;
23555;SDS011;11956;53.184;8.578;2022-07-29T01:11:38;5.80;;;1.30;;
23555;SDS011;11956;53.184;8.578;2022-07-29T01:14:40;4.60;;;1.05;;
23555;SDS011;11956;53.184;8.578;2022-07-29T01:17:43;3.22;;;1.00;;
23555;SDS011;11956;53.184;8.578;2022-07-29T01:21:21;3.38;;;1.00;;
23555;SDS011;11956;53.184;8.578;2022-07-29T01:38:23;3.35;;;1.30;;
23555;SDS011;11956;53.184;8.578;2022-07-29T01:41:28;4.00;;;1.27;;
23555;SDS011;11956;53.184;8.578;2022-07-29T01:44:35;3.28;;;1.30;;
23555;SDS011;11956;53.184;8.578;2022-07-29T01:47:46;6.90;;;1.65;;
23555;SDS011;11956;53.184;8.578;2022-07-29T01:51:20;9.40;;;1.58;;
23555;SDS011;11956;53.184;8.578;2022-07-29T01:57:36;5.35;;;1.17;;
23555;SDS011;11956;53.184;8.578;2022-07-29T02:00:39;2.67;;;0.95;;
23555;SDS011;11956;53.184;8.578;2022-07-29T02:03:45;7.33;;;1.60;;
23555;SDS011;11956;53.184;8.578;2022-07-29T02:06:47;4.38;;;1.15;;
23555;SDS011;11956;53.184;8.578;2022-07-29T02:09:51;6.22;;;1.30;;
23555;SDS011;11956;53.184;8.578;2022-07-29T02:12:54;4.45;;;1.27;;
23555;SDS011;11956;53.184;8.578;2022-07-29T02:15:57;3.95;;;1.38;;
23555;SDS011;11956;53.184;8.578;2022-07-29T02:19:00;6.30;;;1.10;;
23555;SDS011;11956;53.184;8.578;2022-07-29T02:22:02;5.32;;;1.40;;
23555;SDS011;11956;53.184;8.578;2022-07-29T02:25:05;3.45;;;1.13;;
23555;SDS011;11956;53.184;8.578;2022-07-29T02:28:08;2.83;;;1.10;;
23555;SDS011;11956;53.184;8.578;2022-07-29T02:31:09;3.58;;;1.10;;
23555;SDS011;11956;53.184;8.578;2022-07-29T02:34:11;4.38;;;1.40;;
23555;SDS011;11956;53.184;8.578;2022-07-29T02:37:12;4.57;;;1.55;;
23555;SDS011;11956;53.184;8.578;2022-07-29T02:40:14;2.83;;;1.13;;
23555;SDS011;11956;53.184;8.578;2022-07-29T02:43:16;3.53;;;1.20;;
23555;SDS011;11956;53.184;8.578;2022-07-29T02:46:20;5.53;;;1.52;;
23555;SDS011;11956;53.184;8.578;2022-07-29T02:49:38;4.25;;;1.33;;
23555;SDS011;11956;53.184;8.578;2022-07-29T02:53:22;4.82;;;1.42;;
23555;SDS011;11956;53.184;8.578;2022-07-29T02:56:27;2.85;;;1.27;;
23555;SDS011;11956;53.184;8.578;2022-07-29T02:59:34;3.65;;;1.30;;
23555;SDS011;11956;53.184;8.578;2022-07-29T03:02:39;4.55;;;1.33;;
23555;SDS011;11956;53.184;8.578;2022-07-29T03:05:44;4.13;;;1.38;;
23555;SDS011;11956;53.184;8.578;2022-07-29T03:08:46;3.88;;;1.38;;
23555;SDS011;11956;53.184;8.578;2022-07-29T03:11:47;3.40;;;1.30;;
23555;SDS011;11956;53.184;8.578;2022-07-29T03:14:48;3.55;;;1.10;;
23555;SDS011;11956;53.184;8.578;2022-07-29T03:17:50;3.53;;;1.40;;
23555;SDS011;11956;53.184;8.578;2022-07-29T03:20:52;2.88;;;1.25;;
23555;SDS011;11956;53.184;8.578;2022-07-29T03:23:53;2.40;;;1.48;;
23555;SDS011;11956;53.184;8.578;2022-07-29T03:26:55;3.53;;;1.25;;
23555;SDS011;11956;53.184;8.578;2022-07-29T03:29:56;3.30;;;1.50;;
23555;SDS011;11956;53.184;8.578;2022-07-29T03:32:58;5.55;;;1.55;;
23555;SDS011;11956;53.184;8.578;2022-07-29T03:39:20;5.55;;;1.50;;
23555;SDS011;11956;53.184;8.578;2022-07-29T03:42:26;5.90;;;1.45;;
23555;SDS011;11956;53.184;8.578;2022-07-29T03:45:32;3.78;;;1.25;;
23555;SDS011;11956;53.184;8.578;2022-07-29T03:48:34;4.07;;;1.70;;
23555;SDS011;11956;53.184;8.578;2022-07-29T03:51:39;3.72;;;1.27;;
23555;SDS011;11956;53.184;8.578;2022-07-29T03:54:41;3.78;;;1.30;;
23555;SDS011;11956;53.184;8.578;2022-07-29T03:57:42;3.85;;;1.30;;
23555;SDS011;11956;53.184;8.578;2022-07-29T04:00:46;6.45;;;1.80;;
23555;SDS011;11956;53.184;8.578;2022-07-29T04:03:47;6.70;;;1.63;;
23555;SDS011;11956;53.184;8.578;2022-07-29T04:06:48;3.88;;;1.58;;
23555;SDS011;11956;53.184;8.578;2022-07-29T04:09:49;4.68;;;1.52;;
23555;SDS011;11956;53.184;8.578;2022-07-29T04:12:50;4.80;;;1.42;;
23555;SDS011;11956;53.184;8.578;2022-07-29T04:15:51;4.13;;;1.70;;
23555;SDS011;11956;53.184;8.578;2022-07-29T04:18:52;4.75;;;1.63;;
23555;SDS011;11956;53.184;8.578;2022-07-29T04:21:53;5.28;;;1.88;;
23555;SDS011;11956;53.184;8.578;2022-07-29T04:24:53;4.75;;;1.73;;
23555;SDS011;11956;53.184;8.578;2022-07-29T04:27:54;6.20;;;1.83;;
23555;SDS011;11956;53.184;8.578;2022-07-29T04:31:01;5.30;;;1.58;;
23555;SDS011;11956;53.184;8.578;2022-07-29T04:34:02;4.65;;;1.50;;
23555;SDS011;11956;53.184;8.578;2022-07-29T04:37:03;3.28;;;1.60;;
23555;SDS011;11956;53.184;8.578;2022-07-29T04:40:04;2.75;;;1.50;;
23555;SDS011;11956;53.184;8.578;2022-07-29T04:43:05;3.20;;;1.70;;
23555;SDS011;11956;53.184;8.578;2022-07-29T04:46:06;4.57;;;1.70;;
23555;SDS011;11956;53.184;8.578;2022-07-29T04:49:07;4.07;;;1.63;;
23555;SDS011;11956;53.184;8.578;2022-07-29T04:52:08;5.78;;;1.70;;
23555;SDS011;11956;53.184;8.578;2022-07-29T04:55:09;5.15;;;1.38;;
23555;SDS011;11956;53.184;8.578;2022-07-29T04:58:10;3.85;;;2.00;;
23555;SDS011;11956;53.184;8.578;2022-07-29T05:01:11;8.75;;;2.00;;
23555;SDS011;11956;53.184;8.578;2022-07-29T05:04:11;6.90;;;2.35;;
23555;SDS011;11956;53.184;8.578;2022-07-29T05:07:12;3.80;;;1.73;;
23555;SDS011;11956;53.184;8.578;2022-07-29T05:10:14;3.08;;;1.60;;
23555;SDS011;11956;53.184;8.578;2022-07-29T05:13:14;5.07;;;1.60;;
23555;SDS011;11956;53.184;8.578;2022-07-29T05:16:16;6.13;;;1.80;;
23555;SDS011;11956;53.184;8.578;2022-07-29T05:19:17;4.88;;;1.70;;
23555;SDS011;11956;53.184;8.578;2022-07-29T05:22:18;3.72;;;1.60;;
23555;SDS011;11956;53.184;8.578;2022-07-29T05:25:20;4.53;;;1.90;;
23555;SDS011;11956;53.184;8.578;2022-07-29T05:28:21;5.57;;;1.55;;
23555;SDS011;11956;53.184;8.578;2022-07-29T05:31:22;4.90;;;2.13;;
23555;SDS011;11956;53.184;8.578;2022-07-29T05:34:23;3.20;;;1.80;;
23555;SDS011;11956;53.184;8.578;2022-07-29T05:37:25;4.45;;;1.65;;
23555;SDS011;11956;53.184;8.578;2022-07-29T05:40:25;3.42;;;1.65;;
23555;SDS011;11956;53.184;8.578;2022-07-29T05:43:30;3.40;;;1.60;;
23555;SDS011;11956;53.184;8.578;2022-07-29T05:46:31;4.72;;;2.00;;
23555;SDS011;11956;53.184;8.578;2022-07-29T05:49:32;8.00;;;1.77;;
23555;SDS011;11956;53.184;8.578;2022-07-29T05:52:33;4.38;;;1.95;;
23555;SDS011;11956;53.184;8.578;2022-07-29T05:55:34;2.50;;;1.80;;
23555;SDS011;11956;53.184;8.578;2022-07-29T05:58:35;5.53;;;2.00;;
23555;SDS011;11956;53.184;8.578;2022-07-29T06:01:36;4.20;;;2.05;;
23555;SDS011;11956;53.184;8.578;2022-07-29T06:04:39;4.50;;;2.03;;
23555;SDS011;11956;53.184;8.578;2022-07-29T06:07:40;4.82;;;1.90;;
23555;SDS011;11956;53.184;8.578;2022-07-29T06:10:41;5.32;;;1.95;;
23555;SDS011;11956;53.184;8.578;2022-07-29T06:13:42;7.53;;;2.00;;
23555;SDS011;11956;53.184;8.578;2022-07-29T06:16:42;4.90;;;1.98;;
23555;SDS011;11956;53.184;8.578;2022-07-29T06:19:43;4.57;;;1.98;;
23555;SDS011;11956;53.184;8.578;2022-07-29T06:22:44;4.15;;;2.13;;
23555;SDS011;11956;53.184;8.578;2022-07-29T06:25:45;5.88;;;1.80;;
23555;SDS011;11956;53.184;8.578;2022-07-29T06:28:46;7.15;;;1.88;;
23555;SDS011;11956;53.184;8.578;2022-07-29T06:31:47;5.75;;;1.60;;
23555;SDS011;11956;53.184;8.578;2022-07-29T06:34:48;7.18;;;1.90;;
23555;SDS011;11956;53.184;8.578;2022-07-29T06:37:49;4.63;;;1.83;;
23555;SDS011;11956;53.184;8.578;2022-07-29T06:40:51;4.68;;;1.75;;
23555;SDS011;11956;53.184;8.578;2022-07-29T06:44:00;6.18;;;2.08;;
23555;SDS011;11956;53.184;8.578;2022-07-29T06:47:01;8.23;;;2.30;;
23555;SDS011;11956;53.184;8.578;2022-07-29T06:50:03;4.57;;;1.90;;
23555;SDS011;11956;53.184;8.578;2022-07-29T06:53:05;4.25;;;1.85;;
23555;SDS011;11956;53.184;8.578;2022-07-29T06:56:06;4.35;;;1.80;;
23555;SDS011;11956;53.184;8.578;2022-07-29T06:59:12;6.95;;;1.77;;
23555;SDS011;11956;53.184;8.578;2022-07-29T07:02:13;5.15;;;1.80;;
23555;SDS011;11956;53.184;8.578;2022-07-29T07:05:14;7.20;;;1.92;;
23555;SDS011;11956;53.184;8.578;2022-07-29T07:08:15;3.97;;;1.90;;
23555;SDS011;11956;53.184;8.578;2022-07-29T07:11:16;5.40;;;1.80;;
23555;SDS011;11956;53.184;8.578;2022-07-29T07:14:17;5.75;;;1.90;;
23555;SDS011;11956;53.184;8.578;2022-07-29T07:17:17;6.65;;;2.03;;
23555;SDS011;11956;53.184;8.578;2022-07-29T07:20:18;7.10;;;1.70;;
23555;SDS011;11956;53.184;8.578;2022-07-29T07:23:20;6.80;;;2.03;;
23555;SDS011;11956;53.184;8.578;2022-07-29T07:26:20;5.22;;;1.58;;
23555;SDS011;11956;53.184;8.578;2022-07-29T07:29:21;3.63;;;1.70;;
23555;SDS011;11956;53.184;8.578;2022-07-29T07:32:22;4.20;;;1.73;;
23555;SDS011;11956;53.184;8.578;2022-07-29T07:35:23;5.57;;;2.17;;
23555;SDS011;11956;53.184;8.578;2022-07-29T07:38:24;4.32;;;1.75;;
23555;SDS011;11956;53.184;8.578;2022-07-29T07:41:25;6.50;;;1.83;;
23555;SDS011;11956;53.184;8.578;2022-07-29T07:44:25;4.07;;;2.03;;
23555;SDS011;11956;53.184;8.578;2022-07-29T07:47:26;3.58;;;1.52;;
23555;SDS011;11956;53.184;8.578;2022-07-29T07:50:27;3.67;;;1.45;;
23555;SDS011;11956;53.184;8.578;2022-07-29T07:53:28;5.22;;;1.70;;
23555;SDS011;11956;53.184;8.578;2022-07-29T07:56:29;6.75;;;1.90;;
23555;SDS011;11956;53.184;8.578;2022-07-29T07:59:30;4.68;;;1.40;;
23555;SDS011;11956;53.184;8.578;2022-07-29T08:02:31;4.80;;;2.10;;
23555;SDS011;11956;53.184;8.578;2022-07-29T08:05:32;5.53;;;1.80;;
23555;SDS011;11956;53.184;8.578;2022-07-29T08:08:33;3.75;;;1.92;;
23555;SDS011;11956;53.184;8.578;2022-07-29T08:11:34;4.95;;;1.50;;
23555;SDS011;11956;53.184;8.578;2022-07-29T08:14:35;5.15;;;1.70;;
23555;SDS011;11956;53.184;8.578;2022-07-29T08:17:35;4.55;;;1.73;;
23555;SDS011;11956;53.184;8.578;2022-07-29T08:20:36;4.95;;;1.70;;
23555;SDS011;11956;53.184;8.578;2022-07-29T08:23:38;4.00;;;1.60;;
23555;SDS011;11956;53.184;8.578;2022-07-29T08:26:45;4.95;;;1.40;;
23555;SDS011;11956;53.184;8.578;2022-07-29T08:29:46;4.88;;;1.60;;
23555;SDS011;11956;53.184;8.578;2022-07-29T08:32:47;6.13;;;1.70;;
23555;SDS011;11956;53.184;8.578;2022-07-29T08:35:50;3.75;;;1.65;;
23555;SDS011;11956;53.184;8.578;2022-07-29T08:38:51;2.80;;;1.40;;
23555;SDS011;11956;53.184;8.578;2022-07-29T08:41:52;2.83;;;1.45;;
23555;SDS011;11956;53.184;8.578;2022-07-29T08:44:54;3.08;;;1.23;;
23555;SDS011;11956;53.184;8.578;2022-07-29T08:47:57;5.25;;;1.70;;
23555;SDS011;11956;53.184;8.578;2022-07-29T08:50:58;4.10;;;1.60;;
23555;SDS011;11956;53.184;8.578;2022-07-29T08:54:00;2.08;;;1.20;;
23555;SDS011;11956;53.184;8.578;2022-07-29T08:57:02;3.25;;;1.50;;
23555;SDS011;11956;53.184;8.578;2022-07-29T09:00:06;3.63;;;1.30;;
23555;SDS011;11956;53.184;8.578;2022-07-29T09:03:08;4.90;;;1.88;;
23555;SDS011;11956;53.184;8.578;2022-07-29T09:06:13;5.18;;;1.98;;
23555;SDS011;11956;53.184;8.578;2022-07-29T09:09:15;6.28;;;2.05;;
23555;SDS011;11956;53.184;8.578;2022-07-29T09:12:17;4.55;;;1.65;;
23555;SDS011;11956;53.184;8.578;2022-07-29T09:15:18;4.05;;;1.88;;
23555;SDS011;11956;53.184;8.578;2022-07-29T09:21:40;6.22;;;1.77;;
23555;SDS011;11956;53.184;8.578;2022-07-29T09:24:59;5.50;;;1.90;;
23555;SDS011;11956;53.184;8.578;2022-07-29T09:31:08;4.43;;;1.48;;
23555;SDS011;11956;53.184;8.578;2022-07-29T09:34:09;4.35;;;1.88;;
23555;SDS011;11956;53.184;8.578;2022-07-29T09:37:11;3.97;;;1.52;;
23555;SDS011;11956;53.184;8.578;2022-07-29T09:40:26;6.10;;;1.42;;
23555;SDS011;11956;53.184;8.578;2022-07-29T09:43:28;4.03;;;1.52;;
23555;SDS011;11956;53.184;8.578;2022-07-29T09:46:29;3.80;;;1.23;;
23555;SDS011;11956;53.184;8.578;2022-07-29T09:49:30;7.82;;;1.73;;
23555;SDS011;11956;53.184;8.578;2022-07-29T09:52:31;3.55;;;1.20;;
23555;SDS011;11956;53.184;8.578;2022-07-29T09:55:32;3.33;;;1.58;;
23555;SDS011;11956;53.184;8.578;2022-07-29T09:58:33;5.80;;;1.60;;
23555;SDS011;11956;53.184;8.578;2022-07-29T10:01:34;5.22;;;1.50;;
23555;SDS011;11956;53.184;8.578;2022-07-29T10:04:42;3.60;;;1.20;;
23555;SDS011;11956;53.184;8.578;2022-07-29T10:07:47;2.85;;;1.52;;
23555;SDS011;11956;53.184;8.578;2022-07-29T10:10:51;3.58;;;1.60;;
23555;SDS011;11956;53.184;8.578;2022-07-29T10:14:09;3.50;;;1.60;;
23555;SDS011;11956;53.184;8.578;2022-07-29T10:17:10;5.55;;;1.60;;
23555;SDS011;11956;53.184;8.578;2022-07-29T10:20:11;3.60;;;1.60;;
23555;SDS011;11956;53.184;8.578;2022-07-29T10:23:12;4.53;;;1.42;;
23555;SDS011;11956;53.184;8.578;2022-07-29T10:26:14;6.68;;;1.52;;
23555;SDS011;11956;53.184;8.578;2022-07-29T10:29:15;5.97;;;1.52;;
23555;SDS011;11956;53.184;8.578;2022-07-29T10:32:20;5.10;;;1.48;;
23555;SDS011;11956;53.184;8.578;2022-07-29T10:43:41;4.50;;;1.42;;
23555;SDS011;11956;53.184;8.578;2022-07-29T10:46:46;4.28;;;1.58;;
23555;SDS011;11956;53.184;8.578;2022-07-29T10:49:57;8.02;;;1.80;;
23555;SDS011;11956;53.184;8.578;2022-07-29T10:53:08;5.07;;;1.27;;
23555;SDS011;11956;53.184;8.578;2022-07-29T10:56:22;2.58;;;1.30;;
23555;SDS011;11956;53.184;8.578;2022-07-29T10:59:33;4.18;;;1.33;;
23555;SDS011;11956;53.184;8.578;2022-07-29T11:05:52;4.93;;;1.70;;
23555;SDS011;11956;53.184;8.578;2022-07-29T11:09:17;5.35;;;1.50;;
23555;SDS011;11956;53.184;8.578;2022-07-29T11:15:54;4.18;;;1.30;;
23555;SDS011;11956;53.184;8.578;2022-07-29T11:22:30;3.42;;;1.30;;
23555;SDS011;11956;53.184;8.578;2022-07-29T11:25:33;4.25;;;1.45;;
23555;SDS011;11956;53.184;8.578;2022-07-29T11:28:34;3.83;;;1.58;;
23555;SDS011;11956;53.184;8.578;2022-07-29T11:31:51;4.70;;;1.23;;
23555;SDS011;11956;53.184;8.578;2022-07-29T11:41:26;4.13;;;1.60;;
23555;SDS011;11956;53.184;8.578;2022-07-29T11:45:13;3.50;;;1.35;;
23555;SDS011;11956;53.184;8.578;2022-07-29T11:47:55;3.03;;;1.40;;
23555;SDS011;11956;53.184;8.578;2022-07-29T11:51:01;4.18;;;1.50;;
23555;SDS011;11956;53.184;8.578;2022-07-29T11:54:11;2.17;;;1.17;;
23555;SDS011;11956;53.184;8.578;2022-07-29T11:57:17;5.07;;;1.27;;
23555;SDS011;11956;53.184;8.578;2022-07-29T12:00:21;5.68;;;1.40;;
23555;SDS011;11956;53.184;8.578;2022-07-29T12:03:32;5.43;;;1.40;;
23555;SDS011;11956;53.184;8.578;2022-07-29T12:06:34;5.43;;;1.10;;
23555;SDS011;11956;53.184;8.578;2022-07-29T12:09:35;4.35;;;1.10;;
23555;SDS011;11956;53.184;8.578;2022-07-29T12:12:36;5.97;;;1.55;;
23555;SDS011;11956;53.184;8.578;2022-07-29T12:15:38;6.53;;;1.45;;
23555;SDS011;11956;53.184;8.578;2022-07-29T12:18:40;5.40;;;1.40;;
23555;SDS011;11956;53.184;8.578;2022-07-29T12:21:48;7.03;;;1.20;;
23555;SDS011;11956;53.184;8.578;2022-07-29T12:24:55;10.20;;;1.67;;
23555;SDS011;11956;53.184;8.578;2022-07-29T12:28:05;4.40;;;1.50;;
23555;SDS011;11956;53.184;8.578;2022-07-29T12:31:15;2.72;;;1.05;;
23555;SDS011;11956;53.184;8.578;2022-07-29T12:34:16;5.20;;;1.20;;
23555;SDS011;11956;53.184;8.578;2022-07-29T12:37:17;5.13;;;1.30;;
23555;SDS011;11956;53.184;8.578;2022-07-29T12:40:18;4.05;;;1.30;;
23555;SDS011;11956;53.184;8.578;2022-07-29T12:43:21;5.00;;;1.50;;
23555;SDS011;11956;53.184;8.578;2022-07-29T12:49:25;3.30;;;1.00;;
23555;SDS011;11956;53.184;8.578;2022-07-29T12:52:27;6.13;;;1.30;;
23555;SDS011;11956;53.184;8.578;2022-07-29T12:55:41;5.03;;;1.10;;
23555;SDS011;11956;53.184;8.578;2022-07-29T12:58:54;12.38;;;2.15;;
23555;SDS011;11956;53.184;8.578;2022-07-29T13:01:55;5.15;;;1.30;;
23555;SDS011;11956;53.184;8.578;2022-07-29T13:04:56;5.63;;;1.45;;
23555;SDS011;11956;53.184;8.578;2022-07-29T13:08:14;4.82;;;1.30;;
23555;SDS011;11956;53.184;8.578;2022-07-29T13:11:29;3.67;;;1.20;;
23555;SDS011;11956;53.184;8.578;2022-07-29T13:14:48;2.58;;;1.10;;
23555;SDS011;11956;53.184;8.578;2022-07-29T13:20:52;3.13;;;1.17;;
23555;SDS011;11956;53.184;8.578;2022-07-29T13:23:52;2.45;;;1.00;;
23555;SDS011;11956;53.184;8.578;2022-07-29T13:26:53;5.50;;;1.20;;
23555;SDS011;11956;53.184;8.578;2022-07-29T13:29:55;3.13;;;1.15;;
23555;SDS011;11956;53.184;8.578;2022-07-29T13:35:58;3.78;;;1.00;;
23555;SDS011;11956;53.184;8.578;2022-07-29T13:38:59;3.13;;;1.10;;
23555;SDS011;11956;53.184;8.578;2022-07-29T13:45:04;2.53;;;1.15;;
23555;SDS011;11956;53.184;8.578;2022-07-29T13:48:06;8.83;;;1.30;;
23555;SDS011;11956;53.184;8.578;2022-07-29T13:51:07;6.00;;;1.38;;
23555;SDS011;11956;53.184;8.578;2022-07-29T13:54:08;4.80;;;1.38;;
23555;SDS011;11956;53.184;8.578;2022-07-29T13:57:09;2.67;;;0.93;;
23555;SDS011;11956;53.184;8.578;2022-07-29T14:00:12;4.03;;;1.27;;
23555;SDS011;11956;53.184;8.578;2022-07-29T14:03:15;2.97;;;1.13;;
23555;SDS011;11956;53.184;8.578;2022-07-29T14:06:16;4.75;;;1.20;;
23555;SDS011;11956;53.184;8.578;2022-07-29T14:09:17;5.50;;;1.30;;
23555;SDS011;11956;53.184;8.578;2022-07-29T14:12:18;3.28;;;1.27;;
23555;SDS011;11956;53.184;8.578;2022-07-29T14:15:19;3.50;;;1.10;;
23555;SDS011;11956;53.184;8.578;2022-07-29T14:18:20;4.35;;;1.00;;
23555;SDS011;11956;53.184;8.578;2022-07-29T14:24:37;5.38;;;1.20;;
23555;SDS011;11956;53.184;8.578;2022-07-29T14:27:39;4.38;;;1.00;;
23555;SDS011;11956;53.184;8.578;2022-07-29T14:30:39;3.88;;;1.15;;
23555;SDS011;11956;53.184;8.578;2022-07-29T14:33:40;4.90;;;1.30;;
23555;SDS011;11956;53.184;8.578;2022-07-29T14:36:42;6.25;;;1.30;;
23555;SDS011;11956;53.184;8.578;2022-07-29T14:39:43;3.85;;;1.10;;
23555;SDS011;11956;53.184;8.578;2022-07-29T14:42:44;4.30;;;1.00;;
23555;SDS011;11956;53.184;8.578;2022-07-29T14:45:45;3.35;;;1.17;;
23555;SDS011;11956;53.184;8.578;2022-07-29T14:48:45;4.57;;;1.13;;
23555;SDS011;11956;53.184;8.578;2022-07-29T14:51:46;3.45;;;1.13;;
23555;SDS011;11956;53.184;8.578;2022-07-29T14:54:47;6.22;;;1.40;;
23555;SDS011;11956;53.184;8.578;2022-07-29T14:57:48;1.98;;;1.20;;
23555;SDS011;11956;53.184;8.578;2022-07-29T15:00:49;3.13;;;1.20;;
23555;SDS011;11956;53.184;8.578;2022-07-29T15:03:50;3.00;;;1.15;;
23555;SDS011;11956;53.184;8.578;2022-07-29T15:06:52;3.60;;;1.10;;
23555;SDS011;11956;53.184;8.578;2022-07-29T15:09:52;3.15;;;1.10;;
23555;SDS011;11956;53.184;8.578;2022-07-29T15:12:54;3.78;;;1.25;;
23555;SDS011;11956;53.184;8.578;2022-07-29T15:15:55;3.78;;;1.30;;
23555;SDS011;11956;53.184;8.578;2022-07-29T15:18:56;6.60;;;1.15;;
23555;SDS011;11956;53.184;8.578;2022-07-29T15:21:57;3.15;;;1.20;;
23555;SDS011;11956;53.184;8.578;2022-07-29T15:24:58;5.18;;;1.10;;
23555;SDS011;11956;53.184;8.578;2022-07-29T15:27:59;6.53;;;1.60;;
23555;SDS011;11956;53.184;8.578;2022-07-29T15:31:03;3.78;;;1.25;;
23555;SDS011;11956;53.184;8.578;2022-07-29T15:34:04;4.53;;;1.50;;
23555;SDS011;11956;53.184;8.578;2022-07-29T15:37:05;4.78;;;1.35;;
23555;SDS011;11956;53.184;8.578;2022-07-29T15:40:06;3.75;;;1.08;;
23555;SDS011;11956;53.184;8.578;2022-07-29T15:43:08;3.00;;;1.33;;
23555;SDS011;11956;53.184;8.578;2022-07-29T15:46:12;5.53;;;1.80;;
23555;SDS011;11956;53.184;8.578;2022-07-29T15:49:34;4.75;;;1.63;;
23555;SDS011;11956;53.184;8.578;2022-07-29T15:52:37;6.65;;;1.40;;
23555;SDS011;11956;53.184;8.578;2022-07-29T15:55:38;5.82;;;1.30;;
23555;SDS011;11956;53.184;8.578;2022-07-29T15:58:39;3.35;;;1.20;;
23555;SDS011;11956;53.184;8.578;2022-07-29T16:01:40;3.47;;;1.55;;
23555;SDS011;11956;53.184;8.578;2022-07-29T16:04:41;3.67;;;1.67;;
23555;SDS011;11956;53.184;8.578;2022-07-29T16:07:42;3.10;;;1.30;;
23555;SDS011;11956;53.184;8.578;2022-07-29T16:10:43;6.07;;;1.42;;
23555;SDS011;11956;53.184;8.578;2022-07-29T16:13:44;5.05;;;1.70;;
23555;SDS011;11956;53.184;8.578;2022-07-29T16:16:45;6.97;;;1.42;;
23555;SDS011;11956;53.184;8.578;2022-07-29T16:19:46;7.88;;;2.03;;
23555;SDS011;11956;53.184;8.578;2022-07-29T16:22:47;6.25;;;1.65;;
23555;SDS011;11956;53.184;8.578;2022-07-29T16:25:48;4.88;;;1.45;;
23555;SDS011;11956;53.184;8.578;2022-07-29T16:28:49;4.95;;;1.85;;
23555;SDS011;11956;53.184;8.578;2022-07-29T16:31:50;6.43;;;1.70;;
23555;SDS011;11956;53.184;8.578;2022-07-29T16:34:52;5.53;;;1.70;;
23555;SDS011;11956;53.184;8.578;2022-07-29T16:37:52;4.65;;;1.40;;
23555;SDS011;11956;53.184;8.578;2022-07-29T16:40:53;7.05;;;1.90;;
23555;SDS011;11956;53.184;8.578;2022-07-29T16:43:54;7.53;;;1.50;;
23555;SDS011;11956;53.184;8.578;2022-07-29T16:46:55;6.90;;;2.00;;
23555;SDS011;11956;53.184;8.578;2022-07-29T16:49:56;6.07;;;1.58;;
23555;SDS011;11956;53.184;8.578;2022-07-29T16:52:57;4.47;;;1.65;;
23555;SDS011;11956;53.184;8.578;2022-07-29T16:55:58;8.65;;;1.63;;
23555;SDS011;11956;53.184;8.578;2022-07-29T16:58:59;4.10;;;1.45;;
23555;SDS011;11956;53.184;8.578;2022-07-29T17:02:00;3.97;;;1.88;;
23555;SDS011;11956;53.184;8.578;2022-07-29T17:05:01;4.78;;;1.77;;
23555;SDS011;11956;53.184;8.578;2022-07-29T17:08:02;4.80;;;1.98;;
23555;SDS011;11956;53.184;8.578;2022-07-29T17:11:03;7.40;;;2.20;;
23555;SDS011;11956;53.184;8.578;2022-07-29T17:14:04;6.30;;;1.80;;
23555;SDS011;11956;53.184;8.578;2022-07-29T17:17:05;5.47;;;1.85;;
23555;SDS011;11956;53.184;8.578;2022-07-29T17:20:07;3.88;;;1.90;;
23555;SDS011;11956;53.184;8.578;2022-07-29T17:23:09;3.03;;;1.70;;
23555;SDS011;11956;53.184;8.578;2022-07-29T17:26:10;5.45;;;1.90;;
23555;SDS011;11956;53.184;8.578;2022-07-29T17:29:11;3.22;;;1.50;;
23555;SDS011;11956;53.184;8.578;2022-07-29T17:32:15;6.63;;;1.73;;
23555;SDS011;11956;53.184;8.578;2022-07-29T17:35:16;6.30;;;1.38;;
23555;SDS011;11956;53.184;8.578;2022-07-29T17:38:35;4.47;;;1.25;;
23555;SDS011;11956;53.184;8.578;2022-07-29T17:41:37;3.85;;;1.42;;
23555;SDS011;11956;53.184;8.578;2022-07-29T17:44:40;3.80;;;1.75;;
23555;SDS011;11956;53.184;8.578;2022-07-29T17:47:41;9.07;;;3.17;;
23555;SDS011;11956;53.184;8.578;2022-07-29T17:50:41;7.72;;;3.20;;
23555;SDS011;11956;53.184;8.578;2022-07-29T17:53:42;18.25;;;8.55;;
23555;SDS011;11956;53.184;8.578;2022-07-29T17:56:43;33.65;;;21.27;;
23555;SDS011;11956;53.184;8.578;2022-07-29T17:59:44;30.25;;;22.20;;
23555;SDS011;11956;53.184;8.578;2022-07-29T18:02:45;8.55;;;3.53;;
23555;SDS011;11956;53.184;8.578;2022-07-29T18:05:46;9.10;;;3.22;;
23555;SDS011;11956;53.184;8.578;2022-07-29T18:08:47;8.27;;;5.13;;
23555;SDS011;11956;53.184;8.578;2022-07-29T18:11:48;18.40;;;9.77;;
23555;SDS011;11956;53.184;8.578;2022-07-29T18:14:48;20.90;;;12.82;;
23555;SDS011;11956;53.184;8.578;2022-07-29T18:17:49;11.48;;;7.88;;
23555;SDS011;11956;53.184;8.578;2022-07-29T18:20:50;7.78;;;4.43;;
23555;SDS011;11956;53.184;8.578;2022-07-29T18:23:51;16.33;;;8.05;;
23555;SDS011;11956;53.184;8.578;2022-07-29T18:26:52;18.30;;;10.77;;
23555;SDS011;11956;53.184;8.578;2022-07-29T18:29:53;11.85;;;5.60;;
23555;SDS011;11956;53.184;8.578;2022-07-29T18:32:54;9.68;;;5.15;;
23555;SDS011;11956;53.184;8.578;2022-07-29T18:35:55;16.15;;;12.10;;
23555;SDS011;11956;53.184;8.578;2022-07-29T18:38:56;33.33;;;26.45;;
23555;SDS011;11956;53.184;8.578;2022-07-29T18:41:57;15.02;;;10.27;;
23555;SDS011;11956;53.184;8.578;2022-07-29T18:44:58;14.68;;;7.47;;
23555;SDS011;11956;53.184;8.578;2022-07-29T18:47:59;17.67;;;10.27;;
23555;SDS011;11956;53.184;8.578;2022-07-29T18:51:01;12.52;;;6.03;;
23555;SDS011;11956;53.184;8.578;2022-07-29T18:54:02;11.82;;;5.47;;
23555;SDS011;11956;53.184;8.578;2022-07-29T18:57:04;11.40;;;5.47;;
23555;SDS011;11956;53.184;8.578;2022-07-29T19:00:05;11.95;;;6.18;;
23555;SDS011;11956;53.184;8.578;2022-07-29T19:03:07;13.82;;;8.23;;
23555;SDS011;11956;53.184;8.578;2022-07-29T19:06:08;9.73;;;6.57;;
23555;SDS011;11956;53.184;8.578;2022-07-29T19:09:09;13.18;;;8.82;;
23555;SDS011;11956;53.184;8.578;2022-07-29T19:12:10;9.38;;;5.70;;
23555;SDS011;11956;53.184;8.578;2022-07-29T19:15:12;9.63;;;6.93;;
23555;SDS011;11956;53.184;8.578;2022-07-29T19:18:13;11.25;;;7.38;;
23555;SDS011;11956;53.184;8.578;2022-07-29T19:21:13;11.68;;;7.55;;
23555;SDS011;11956;53.184;8.578;2022-07-29T19:24:14;9.93;;;6.35;;
23555;SDS011;11956;53.184;8.578;2022-07-29T19:27:15;9.02;;;6.03;;